sensor_id;sensor_type;location;lat;lon;timestamp;P1;durP1;ratioP1;P2;durP2;ratioP2
57233;SDS011;43090;52.604;13.318;2022-09-23T00:02:16;21.98;;;10.68;;
57233;SDS011;43090;52.604;13.318;2022-09-23T00:13:31;21.02;;;10.05;;
57233;SDS011;43090;52.604;13.318;2022-09-23T00:16:13;19.45;;;10.70;;
57233;SDS011;43090;52.604;13.318;2022-09-23T00:18:43;19.45;;;10.88;;
57233;SDS011;43090;52.604;13.318;2022-09-23T00:21:12;18.98;;;10.43;;
57233;SDS011;43090;52.604;13.318;2022-09-23T00:23:44;21.98;;;10.52;;
57233;SDS011;43090;52.604;13.318;2022-09-23T00:26:12;21.13;;;10.98;;
57233;SDS011;43090;52.604;13.318;2022-09-23T00:28:41;19.92;;;9.60;;
57233;SDS011;43090;52.604;13.318;2022-09-23T00:31:10;18.65;;;9.93;;
57233;SDS011;43090;52.604;13.318;2022-09-23T00:33:42;19.13;;;9.27;;
57233;SDS011;43090;52.604;13.318;2022-09-23T00:38:39;19.13;;;8.98;;
57233;SDS011;43090;52.604;13.318;2022-09-23T00:41:06;18.23;;;9.20;;
57233;SDS011;43090;52.604;13.318;2022-09-23T00:43:40;15.18;;;8.38;;
57233;SDS011;43090;52.604;13.318;2022-09-23T00:46:29;19.95;;;8.63;;
57233;SDS011;43090;52.604;13.318;2022-09-23T00:49:02;14.35;;;8.20;;
57233;SDS011;43090;52.604;13.318;2022-09-23T00:51:37;21.80;;;9.02;;
57233;SDS011;43090;52.604;13.318;2022-09-23T00:54:08;18.15;;;9.45;;
57233;SDS011;43090;52.604;13.318;2022-09-23T00:56:36;16.50;;;8.40;;
57233;SDS011;43090;52.604;13.318;2022-09-23T00:59:05;13.80;;;7.75;;
57233;SDS011;43090;52.604;13.318;2022-09-23T01:01:35;18.90;;;8.95;;
57233;SDS011;43090;52.604;13.318;2022-09-23T01:04:04;17.27;;;9.15;;
57233;SDS011;43090;52.604;13.318;2022-09-23T01:06:53;18.60;;;9.18;;
57233;SDS011;43090;52.604;13.318;2022-09-23T01:09:22;21.38;;;8.98;;
57233;SDS011;43090;52.604;13.318;2022-09-23T01:15:07;17.50;;;8.90;;
57233;SDS011;43090;52.604;13.318;2022-09-23T01:21:15;21.98;;;9.40;;
57233;SDS011;43090;52.604;13.318;2022-09-23T01:24:00;20.98;;;8.75;;
57233;SDS011;43090;52.604;13.318;2022-09-23T01:29:16;18.00;;;9.45;;
57233;SDS011;43090;52.604;13.318;2022-09-23T01:35:11;17.60;;;8.63;;
57233;SDS011;43090;52.604;13.318;2022-09-23T01:37:56;23.70;;;9.45;;
57233;SDS011;43090;52.604;13.318;2022-09-23T01:43:39;14.70;;;8.50;;
57233;SDS011;43090;52.604;13.318;2022-09-23T01:46:19;17.85;;;8.10;;
57233;SDS011;43090;52.604;13.318;2022-09-23T01:49:06;19.58;;;8.38;;
57233;SDS011;43090;52.604;13.318;2022-09-23T01:51:42;14.73;;;7.45;;
57233;SDS011;43090;52.604;13.318;2022-09-23T01:57:03;16.08;;;8.40;;
57233;SDS011;43090;52.604;13.318;2022-09-23T01:59:45;14.45;;;7.72;;
57233;SDS011;43090;52.604;13.318;2022-09-23T02:02:23;11.60;;;7.45;;
57233;SDS011;43090;52.604;13.318;2022-09-23T02:06:06;16.88;;;7.03;;
57233;SDS011;43090;52.604;13.318;2022-09-23T02:08:22;12.07;;;7.43;;
57233;SDS011;43090;52.604;13.318;2022-09-23T02:11:10;11.80;;;6.38;;
57233;SDS011;43090;52.604;13.318;2022-09-23T02:16:33;12.93;;;6.95;;
57233;SDS011;43090;52.604;13.318;2022-09-23T02:21:45;12.45;;;7.30;;
57233;SDS011;43090;52.604;13.318;2022-09-23T02:24:19;13.25;;;7.25;;
57233;SDS011;43090;52.604;13.318;2022-09-23T02:32:13;11.60;;;6.38;;
57233;SDS011;43090;52.604;13.318;2022-09-23T02:35:08;10.63;;;6.38;;
57233;SDS011;43090;52.604;13.318;2022-09-23T02:40:39;13.93;;;6.47;;
57233;SDS011;43090;52.604;13.318;2022-09-23T02:43:33;12.13;;;6.60;;
57233;SDS011;43090;52.604;13.318;2022-09-23T02:46:19;13.93;;;7.25;;
57233;SDS011;43090;52.604;13.318;2022-09-23T02:48:49;10.27;;;6.35;;
57233;SDS011;43090;52.604;13.318;2022-09-23T02:51:20;13.30;;;6.50;;
57233;SDS011;43090;52.604;13.318;2022-09-23T02:53:50;10.57;;;5.95;;
57233;SDS011;43090;52.604;13.318;2022-09-23T02:56:21;12.68;;;7.55;;
57233;SDS011;43090;52.604;13.318;2022-09-23T02:58:47;11.13;;;6.32;;
57233;SDS011;43090;52.604;13.318;2022-09-23T03:09:12;11.77;;;6.30;;
57233;SDS011;43090;52.604;13.318;2022-09-23T03:11:49;12.23;;;6.10;;
57233;SDS011;43090;52.604;13.318;2022-09-23T03:14:26;12.85;;;6.38;;
57233;SDS011;43090;52.604;13.318;2022-09-23T03:17:06;12.20;;;6.57;;
57233;SDS011;43090;52.604;13.318;2022-09-23T03:22:43;10.52;;;6.32;;
57233;SDS011;43090;52.604;13.318;2022-09-23T03:25:14;10.75;;;5.90;;
57233;SDS011;43090;52.604;13.318;2022-09-23T03:27:44;20.67;;;6.07;;
57233;SDS011;43090;52.604;13.318;2022-09-23T03:30:11;10.70;;;6.82;;
57233;SDS011;43090;52.604;13.318;2022-09-23T03:32:40;10.82;;;6.07;;
57233;SDS011;43090;52.604;13.318;2022-09-23T03:35:10;12.80;;;6.07;;
57233;SDS011;43090;52.604;13.318;2022-09-23T03:37:39;12.43;;;6.15;;
57233;SDS011;43090;52.604;13.318;2022-09-23T03:40:16;18.98;;;6.20;;
57233;SDS011;43090;52.604;13.318;2022-09-23T03:42:49;11.95;;;5.80;;
57233;SDS011;43090;52.604;13.318;2022-09-23T03:45:17;12.88;;;5.60;;
57233;SDS011;43090;52.604;13.318;2022-09-23T03:47:47;12.05;;;5.55;;
57233;SDS011;43090;52.604;13.318;2022-09-23T03:50:13;11.63;;;6.13;;
57233;SDS011;43090;52.604;13.318;2022-09-23T03:52:42;9.88;;;5.10;;
57233;SDS011;43090;52.604;13.318;2022-09-23T03:55:09;12.70;;;5.40;;
57233;SDS011;43090;52.604;13.318;2022-09-23T03:57:36;11.00;;;5.22;;
57233;SDS011;43090;52.604;13.318;2022-09-23T04:00:03;14.50;;;5.38;;
57233;SDS011;43090;52.604;13.318;2022-09-23T04:02:33;11.20;;;5.22;;
57233;SDS011;43090;52.604;13.318;2022-09-23T04:04:59;12.70;;;4.85;;
57233;SDS011;43090;52.604;13.318;2022-09-23T04:07:26;17.55;;;6.28;;
57233;SDS011;43090;52.604;13.318;2022-09-23T04:09:53;9.27;;;5.53;;
57233;SDS011;43090;52.604;13.318;2022-09-23T04:12:20;10.52;;;5.25;;
57233;SDS011;43090;52.604;13.318;2022-09-23T04:14:46;13.90;;;5.25;;
57233;SDS011;43090;52.604;13.318;2022-09-23T04:19:40;15.50;;;5.20;;
57233;SDS011;43090;52.604;13.318;2022-09-23T04:22:06;9.57;;;4.82;;
57233;SDS011;43090;52.604;13.318;2022-09-23T04:24:36;11.48;;;5.45;;
57233;SDS011;43090;52.604;13.318;2022-09-23T04:27:05;9.48;;;5.60;;
57233;SDS011;43090;52.604;13.318;2022-09-23T04:29:31;12.10;;;5.80;;
57233;SDS011;43090;52.604;13.318;2022-09-23T04:31:58;12.70;;;5.55;;
57233;SDS011;43090;52.604;13.318;2022-09-23T04:36:53;9.75;;;5.10;;
57233;SDS011;43090;52.604;13.318;2022-09-23T04:39:20;7.82;;;4.93;;
57233;SDS011;43090;52.604;13.318;2022-09-23T04:41:47;9.60;;;5.10;;
57233;SDS011;43090;52.604;13.318;2022-09-23T04:44:14;8.75;;;4.47;;
57233;SDS011;43090;52.604;13.318;2022-09-23T04:46:41;8.65;;;5.28;;
57233;SDS011;43090;52.604;13.318;2022-09-23T04:49:09;10.82;;;5.10;;
57233;SDS011;43090;52.604;13.318;2022-09-23T04:51:36;8.25;;;4.95;;
57233;SDS011;43090;52.604;13.318;2022-09-23T04:54:02;11.63;;;5.47;;
57233;SDS011;43090;52.604;13.318;2022-09-23T04:56:29;15.55;;;5.65;;
57233;SDS011;43090;52.604;13.318;2022-09-23T04:59:10;16.42;;;6.75;;
57233;SDS011;43090;52.604;13.318;2022-09-23T05:09:55;20.15;;;7.45;;
57233;SDS011;43090;52.604;13.318;2022-09-23T05:20:04;22.83;;;7.25;;
57233;SDS011;43090;52.604;13.318;2022-09-23T05:33:50;12.05;;;6.68;;
57233;SDS011;43090;52.604;13.318;2022-09-23T05:36:19;10.23;;;5.68;;
57233;SDS011;43090;52.604;13.318;2022-09-23T05:38:47;8.48;;;5.32;;
57233;SDS011;43090;52.604;13.318;2022-09-23T05:41:15;12.60;;;5.57;;
57233;SDS011;43090;52.604;13.318;2022-09-23T05:43:43;16.48;;;5.25;;
57233;SDS011;43090;52.604;13.318;2022-09-23T05:48:38;13.23;;;6.45;;
57233;SDS011;43090;52.604;13.318;2022-09-23T05:51:08;12.00;;;6.13;;
57233;SDS011;43090;52.604;13.318;2022-09-23T05:53:38;11.18;;;5.43;;
57233;SDS011;43090;52.604;13.318;2022-09-23T05:56:06;10.02;;;5.15;;
57233;SDS011;43090;52.604;13.318;2022-09-23T05:58:33;13.13;;;5.25;;
57233;SDS011;43090;52.604;13.318;2022-09-23T06:01:00;10.05;;;4.93;;
57233;SDS011;43090;52.604;13.318;2022-09-23T06:03:26;14.40;;;5.03;;
57233;SDS011;43090;52.604;13.318;2022-09-23T06:08:21;11.68;;;5.88;;
57233;SDS011;43090;52.604;13.318;2022-09-23T06:10:48;8.73;;;5.07;;
57233;SDS011;43090;52.604;13.318;2022-09-23T06:13:19;10.40;;;5.40;;
57233;SDS011;43090;52.604;13.318;2022-09-23T06:15:48;12.88;;;5.70;;
57233;SDS011;43090;52.604;13.318;2022-09-23T06:18:19;9.02;;;5.07;;
57233;SDS011;43090;52.604;13.318;2022-09-23T06:23:13;14.10;;;4.60;;
57233;SDS011;43090;52.604;13.318;2022-09-23T06:28:09;10.63;;;4.80;;
57233;SDS011;43090;52.604;13.318;2022-09-23T06:30:40;8.90;;;5.35;;
57233;SDS011;43090;52.604;13.318;2022-09-23T06:33:07;13.32;;;4.72;;
57233;SDS011;43090;52.604;13.318;2022-09-23T06:35:35;12.35;;;5.05;;
57233;SDS011;43090;52.604;13.318;2022-09-23T06:38:02;10.05;;;4.80;;
57233;SDS011;43090;52.604;13.318;2022-09-23T06:40:30;9.35;;;4.82;;
57233;SDS011;43090;52.604;13.318;2022-09-23T06:43:06;12.23;;;5.50;;
57233;SDS011;43090;52.604;13.318;2022-09-23T06:45:44;10.77;;;5.20;;
57233;SDS011;43090;52.604;13.318;2022-09-23T06:50:43;9.73;;;5.35;;
57233;SDS011;43090;52.604;13.318;2022-09-23T06:53:12;10.48;;;5.95;;
57233;SDS011;43090;52.604;13.318;2022-09-23T06:58:26;10.15;;;5.40;;
57233;SDS011;43090;52.604;13.318;2022-09-23T07:01:04;15.75;;;6.03;;
57233;SDS011;43090;52.604;13.318;2022-09-23T07:03:34;10.95;;;6.45;;
57233;SDS011;43090;52.604;13.318;2022-09-23T07:06:02;15.75;;;6.38;;
57233;SDS011;43090;52.604;13.318;2022-09-23T07:08:29;16.45;;;8.05;;
57233;SDS011;43090;52.604;13.318;2022-09-23T07:11:05;14.25;;;7.43;;
57233;SDS011;43090;52.604;13.318;2022-09-23T07:13:49;21.58;;;8.07;;
57233;SDS011;43090;52.604;13.318;2022-09-23T07:23:45;12.07;;;7.10;;
57233;SDS011;43090;52.604;13.318;2022-09-23T07:37:02;18.92;;;8.07;;
57233;SDS011;43090;52.604;13.318;2022-09-23T08:17:35;13.43;;;4.63;;
57233;SDS011;43090;52.604;13.318;2022-09-23T08:20:18;10.98;;;3.92;;
57233;SDS011;43090;52.604;13.318;2022-09-23T08:23:10;9.35;;;4.25;;
57233;SDS011;43090;52.604;13.318;2022-09-23T08:25:40;8.00;;;4.47;;
57233;SDS011;43090;52.604;13.318;2022-09-23T08:33:52;7.82;;;4.40;;
57233;SDS011;43090;52.604;13.318;2022-09-23T08:36:23;6.18;;;3.65;;
57233;SDS011;43090;52.604;13.318;2022-09-23T09:14:50;6.18;;;3.42;;
57233;SDS011;43090;52.604;13.318;2022-09-23T09:33:16;3.97;;;2.58;;
57233;SDS011;43090;52.604;13.318;2022-09-23T10:15:39;5.70;;;1.73;;
57233;SDS011;43090;52.604;13.318;2022-09-23T10:26:09;4.57;;;0.98;;
57233;SDS011;43090;52.604;13.318;2022-09-23T11:52:39;4.85;;;1.40;;
57233;SDS011;43090;52.604;13.318;2022-09-23T12:09:27;2.20;;;1.00;;
57233;SDS011;43090;52.604;13.318;2022-09-23T12:17:40;2.88;;;1.15;;
57233;SDS011;43090;52.604;13.318;2022-09-23T12:31:18;1.90;;;0.80;;
57233;SDS011;43090;52.604;13.318;2022-09-23T12:41:39;3.13;;;1.10;;
57233;SDS011;43090;52.604;13.318;2022-09-23T12:51:13;1.67;;;0.93;;
57233;SDS011;43090;52.604;13.318;2022-09-23T12:53:58;3.08;;;1.23;;
57233;SDS011;43090;52.604;13.318;2022-09-23T13:32:43;2.70;;;1.00;;
57233;SDS011;43090;52.604;13.318;2022-09-23T13:43:22;1.00;;;0.73;;
57233;SDS011;43090;52.604;13.318;2022-09-23T14:01:36;2.88;;;0.80;;
57233;SDS011;43090;52.604;13.318;2022-09-23T14:04:59;4.90;;;1.30;;
57233;SDS011;43090;52.604;13.318;2022-09-23T14:08:21;2.75;;;1.00;;
57233;SDS011;43090;52.604;13.318;2022-09-23T14:18:54;2.35;;;1.02;;
57233;SDS011;43090;52.604;13.318;2022-09-23T14:21:46;7.22;;;0.90;;
57233;SDS011;43090;52.604;13.318;2022-09-23T14:27:50;1.40;;;0.93;;
57233;SDS011;43090;52.604;13.318;2022-09-23T14:38:19;1.50;;;1.00;;
57233;SDS011;43090;52.604;13.318;2022-09-23T14:41:22;3.45;;;0.90;;
57233;SDS011;43090;52.604;13.318;2022-09-23T14:43:54;3.58;;;1.35;;
57233;SDS011;43090;52.604;13.318;2022-09-23T14:46:27;1.92;;;0.70;;
57233;SDS011;43090;52.604;13.318;2022-09-23T14:48:57;3.20;;;1.05;;
57233;SDS011;43090;52.604;13.318;2022-09-23T14:51:29;1.10;;;0.82;;
57233;SDS011;43090;52.604;13.318;2022-09-23T15:00:19;2.15;;;1.23;;
57233;SDS011;43090;52.604;13.318;2022-09-23T15:02:58;3.15;;;0.90;;
57233;SDS011;43090;52.604;13.318;2022-09-23T15:05:40;4.22;;;0.80;;
57233;SDS011;43090;52.604;13.318;2022-09-23T15:08:12;2.28;;;0.80;;
57233;SDS011;43090;52.604;13.318;2022-09-23T15:10:43;0.88;;;0.70;;
57233;SDS011;43090;52.604;13.318;2022-09-23T15:13:13;1.75;;;0.75;;
57233;SDS011;43090;52.604;13.318;2022-09-23T15:15:45;1.60;;;0.82;;
57233;SDS011;43090;52.604;13.318;2022-09-23T15:20:50;2.63;;;0.68;;
57233;SDS011;43090;52.604;13.318;2022-09-23T15:23:35;1.08;;;0.65;;
57233;SDS011;43090;52.604;13.318;2022-09-23T15:26:09;4.35;;;0.93;;
57233;SDS011;43090;52.604;13.318;2022-09-23T15:28:37;8.35;;;1.83;;
57233;SDS011;43090;52.604;13.318;2022-09-23T15:31:04;1.70;;;1.20;;
57233;SDS011;43090;52.604;13.318;2022-09-23T15:35:58;1.27;;;0.85;;
57233;SDS011;43090;52.604;13.318;2022-09-23T15:38:27;5.55;;;1.40;;
57233;SDS011;43090;52.604;13.318;2022-09-23T15:40:54;3.63;;;0.70;;
57233;SDS011;43090;52.604;13.318;2022-09-23T15:45:53;5.13;;;1.20;;
57233;SDS011;43090;52.604;13.318;2022-09-23T15:48:34;1.92;;;0.95;;
57233;SDS011;43090;52.604;13.318;2022-09-23T15:51:05;3.22;;;0.90;;
57233;SDS011;43090;52.604;13.318;2022-09-23T15:53:34;0.95;;;0.70;;
57233;SDS011;43090;52.604;13.318;2022-09-23T15:56:03;1.80;;;0.63;;
57233;SDS011;43090;52.604;13.318;2022-09-23T15:58:30;1.90;;;0.80;;
57233;SDS011;43090;52.604;13.318;2022-09-23T16:00:57;1.05;;;0.80;;
57233;SDS011;43090;52.604;13.318;2022-09-23T16:03:25;2.88;;;0.75;;
57233;SDS011;43090;52.604;13.318;2022-09-23T16:05:59;4.32;;;1.00;;
57233;SDS011;43090;52.604;13.318;2022-09-23T16:08:28;1.95;;;0.93;;
57233;SDS011;43090;52.604;13.318;2022-09-23T16:11:01;1.00;;;0.80;;
57233;SDS011;43090;52.604;13.318;2022-09-23T16:18:53;3.05;;;0.85;;
57233;SDS011;43090;52.604;13.318;2022-09-23T16:25:27;1.45;;;0.80;;
57233;SDS011;43090;52.604;13.318;2022-09-23T16:27:57;1.55;;;0.95;;
57233;SDS011;43090;52.604;13.318;2022-09-23T16:30:27;1.48;;;0.90;;
57233;SDS011;43090;52.604;13.318;2022-09-23T16:35:50;2.05;;;0.95;;
57233;SDS011;43090;52.604;13.318;2022-09-23T16:38:17;2.55;;;1.13;;
57233;SDS011;43090;52.604;13.318;2022-09-23T16:40:43;7.18;;;1.15;;
57233;SDS011;43090;52.604;13.318;2022-09-23T16:43:13;1.88;;;0.98;;
57233;SDS011;43090;52.604;13.318;2022-09-23T16:45:42;3.25;;;1.27;;
57233;SDS011;43090;52.604;13.318;2022-09-23T16:48:11;4.38;;;1.27;;
57233;SDS011;43090;52.604;13.318;2022-09-23T16:50:38;1.88;;;1.08;;
57233;SDS011;43090;52.604;13.318;2022-09-23T16:53:05;4.13;;;1.60;;
57233;SDS011;43090;52.604;13.318;2022-09-23T16:55:32;3.40;;;1.30;;
57233;SDS011;43090;52.604;13.318;2022-09-23T16:57:58;3.28;;;2.00;;
57233;SDS011;43090;52.604;13.318;2022-09-23T17:00:39;7.55;;;2.08;;
57233;SDS011;43090;52.604;13.318;2022-09-23T17:03:24;5.65;;;2.13;;
57233;SDS011;43090;52.604;13.318;2022-09-23T17:06:12;9.55;;;2.15;;
57233;SDS011;43090;52.604;13.318;2022-09-23T17:08:40;10.80;;;3.45;;
57233;SDS011;43090;52.604;13.318;2022-09-23T17:11:08;21.67;;;3.00;;
57233;SDS011;43090;52.604;13.318;2022-09-23T17:13:39;14.82;;;2.85;;
57233;SDS011;43090;52.604;13.318;2022-09-23T17:16:08;9.60;;;2.83;;
57233;SDS011;43090;52.604;13.318;2022-09-23T17:18:37;6.25;;;2.85;;
57233;SDS011;43090;52.604;13.318;2022-09-23T17:21:05;6.00;;;2.97;;
57233;SDS011;43090;52.604;13.318;2022-09-23T17:23:33;6.18;;;2.83;;
57233;SDS011;43090;52.604;13.318;2022-09-23T17:26:23;13.52;;;3.70;;
57233;SDS011;43090;52.604;13.318;2022-09-23T17:30:13;8.75;;;3.20;;
57233;SDS011;43090;52.604;13.318;2022-09-23T17:33:14;15.23;;;3.85;;
57233;SDS011;43090;52.604;13.318;2022-09-23T17:35:55;7.55;;;3.65;;
57233;SDS011;43090;52.604;13.318;2022-09-23T17:38:26;9.25;;;4.20;;
57233;SDS011;43090;52.604;13.318;2022-09-23T17:47:41;9.57;;;3.92;;
57233;SDS011;43090;52.604;13.318;2022-09-23T17:50:13;10.27;;;4.45;;
57233;SDS011;43090;52.604;13.318;2022-09-23T17:52:40;12.65;;;4.47;;
57233;SDS011;43090;52.604;13.318;2022-09-23T17:55:15;14.88;;;4.28;;
57233;SDS011;43090;52.604;13.318;2022-09-23T18:00:57;10.05;;;4.70;;
57233;SDS011;43090;52.604;13.318;2022-09-23T18:03:25;12.70;;;5.13;;
57233;SDS011;43090;52.604;13.318;2022-09-23T18:09:22;10.50;;;5.40;;
57233;SDS011;43090;52.604;13.318;2022-09-23T18:20:12;12.75;;;4.43;;
57233;SDS011;43090;52.604;13.318;2022-09-23T21:00:36;10.57;;;6.25;;
57233;SDS011;43090;52.604;13.318;2022-09-23T21:03:32;9.75;;;6.32;;
57233;SDS011;43090;52.604;13.318;2022-09-23T21:06:40;12.77;;;6.35;;
57233;SDS011;43090;52.604;13.318;2022-09-23T21:13:07;16.05;;;7.00;;
57233;SDS011;43090;52.604;13.318;2022-09-23T21:15:43;13.00;;;6.32;;
57233;SDS011;43090;52.604;13.318;2022-09-23T21:18:10;16.40;;;6.85;;
57233;SDS011;43090;52.604;13.318;2022-09-23T21:21:34;18.05;;;6.38;;
57233;SDS011;43090;52.604;13.318;2022-09-23T21:24:23;11.25;;;6.28;;
57233;SDS011;43090;52.604;13.318;2022-09-23T21:27:14;19.38;;;6.95;;
57233;SDS011;43090;52.604;13.318;2022-09-23T21:30:51;12.15;;;6.88;;
57233;SDS011;43090;52.604;13.318;2022-09-23T21:34:05;11.93;;;6.35;;
57233;SDS011;43090;52.604;13.318;2022-09-23T21:37:20;15.30;;;6.63;;
57233;SDS011;43090;52.604;13.318;2022-09-23T21:40:36;12.27;;;6.97;;
57233;SDS011;43090;52.604;13.318;2022-09-23T21:43:39;18.50;;;6.85;;
57233;SDS011;43090;52.604;13.318;2022-09-23T21:50:14;15.10;;;6.88;;
57233;SDS011;43090;52.604;13.318;2022-09-23T21:53:29;13.50;;;7.18;;
57233;SDS011;43090;52.604;13.318;2022-09-23T21:57:09;10.75;;;6.57;;
57233;SDS011;43090;52.604;13.318;2022-09-23T22:07:10;15.38;;;7.43;;
57233;SDS011;43090;52.604;13.318;2022-09-23T22:10:00;12.77;;;6.68;;
57233;SDS011;43090;52.604;13.318;2022-09-23T22:12:27;13.10;;;6.63;;
57233;SDS011;43090;52.604;13.318;2022-09-23T22:14:56;14.65;;;7.00;;
57233;SDS011;43090;52.604;13.318;2022-09-23T22:17:25;12.18;;;6.88;;
57233;SDS011;43090;52.604;13.318;2022-09-23T22:19:56;13.07;;;6.65;;
57233;SDS011;43090;52.604;13.318;2022-09-23T22:22:27;21.95;;;7.80;;
57233;SDS011;43090;52.604;13.318;2022-09-23T22:27:20;21.23;;;7.35;;
57233;SDS011;43090;52.604;13.318;2022-09-23T22:29:49;12.70;;;7.28;;
57233;SDS011;43090;52.604;13.318;2022-09-23T22:32:34;12.98;;;7.05;;
57233;SDS011;43090;52.604;13.318;2022-09-23T22:35:11;13.75;;;6.50;;
57233;SDS011;43090;52.604;13.318;2022-09-23T22:37:45;15.10;;;7.50;;
57233;SDS011;43090;52.604;13.318;2022-09-23T22:40:13;14.35;;;7.10;;
57233;SDS011;43090;52.604;13.318;2022-09-23T22:42:41;13.25;;;7.45;;
57233;SDS011;43090;52.604;13.318;2022-09-23T22:45:09;14.70;;;7.72;;
57233;SDS011;43090;52.604;13.318;2022-09-23T22:47:37;15.23;;;7.15;;
57233;SDS011;43090;52.604;13.318;2022-09-23T22:50:11;12.75;;;6.13;;
57233;SDS011;43090;52.604;13.318;2022-09-23T22:52:39;11.00;;;6.55;;
57233;SDS011;43090;52.604;13.318;2022-09-23T22:55:14;11.38;;;7.07;;
57233;SDS011;43090;52.604;13.318;2022-09-23T22:57:50;15.93;;;7.13;;
57233;SDS011;43090;52.604;13.318;2022-09-23T23:00:46;21.25;;;7.75;;
57233;SDS011;43090;52.604;13.318;2022-09-23T23:03:13;14.15;;;7.88;;
57233;SDS011;43090;52.604;13.318;2022-09-23T23:05:52;15.38;;;7.68;;
57233;SDS011;43090;52.604;13.318;2022-09-23T23:08:30;14.63;;;7.45;;
57233;SDS011;43090;52.604;13.318;2022-09-23T23:11:00;11.57;;;6.70;;
57233;SDS011;43090;52.604;13.318;2022-09-23T23:13:30;10.93;;;6.95;;
57233;SDS011;43090;52.604;13.318;2022-09-23T23:15:58;14.20;;;6.97;;
57233;SDS011;43090;52.604;13.318;2022-09-23T23:18:33;13.38;;;7.75;;
57233;SDS011;43090;52.604;13.318;2022-09-23T23:21:05;11.65;;;6.93;;
57233;SDS011;43090;52.604;13.318;2022-09-23T23:23:43;15.68;;;7.93;;
57233;SDS011;43090;52.604;13.318;2022-09-23T23:26:17;13.80;;;6.45;;
57233;SDS011;43090;52.604;13.318;2022-09-23T23:28:46;13.55;;;6.00;;
57233;SDS011;43090;52.604;13.318;2022-09-23T23:31:15;12.45;;;6.80;;
57233;SDS011;43090;52.604;13.318;2022-09-23T23:33:46;21.27;;;7.15;;
57233;SDS011;43090;52.604;13.318;2022-09-23T23:36:18;15.23;;;7.53;;
57233;SDS011;43090;52.604;13.318;2022-09-23T23:38:47;13.75;;;7.20;;
57233;SDS011;43090;52.604;13.318;2022-09-23T23:41:22;14.52;;;6.63;;
57233;SDS011;43090;52.604;13.318;2022-09-23T23:44:47;12.23;;;6.53;;
57233;SDS011;43090;52.604;13.318;2022-09-23T23:54:54;18.25;;;7.07;;
57233;SDS011;43090;52.604;13.318;2022-09-23T23:57:45;13.13;;;7.32;;
